Terminal Aerodrome Forecast
Issued by NWS Milwaukee/Sullivan, WI

Home | Current Version | Previous Version | Text Only | Print | Product List | Glossary On
Versions: 1 2 3 4 5 6 7 8 9 10 11 12 13 14 15 16 17 18 19 20 21 22 23 24 25 26 27 28 29 30 31 32 33 34 35 36 37 38 39 40 41
000
FTUS43 KMKX 051120
TAFMKE
TAF
KMKE 051120Z 0512/0618 22005KT 5SM HZ SKC
     FM051300 21005KT P6SM SKC
     FM051800 16010KT P6SM SCT250
     FM060200 17006KT P6SM FEW250
     FM061400 18011KT P6SM FEW250=

USA.gov is the U.S. government's official web portal to all federal, state and local government web resources and services.